Flight Track Log - Related Links

Times and Time Zones

All times are in EDT time to prevent confusion due to time zone crossing. See the GJS3649 flight status page for this flight to view local times or setup timezone preferences in your user account.

Time Position Orientation Groundspeed Altitude Reporting Facility
EDT Latitude Longitude Course Direction KTS MPH feet Rate Location/Type
Tue 09:03:45 AM 41.9667 -87.9167 90° East 42 48 700  Level Chicago TRACON
Tue 09:04:00 AM 42.2517 -87.0949 66° East  Level FlightAware Approximate
Tue 09:04:45 AM 42.0000 -87.9500 323° Northwest 173 199 2,300  Level Chicago TRACON
Tue 09:05:00 AM 42.2692 -86.9483 86° East  Level FlightAware Approximate
Tue 09:05:40 AM 42.0500 -87.9333 14° North 235 270 4,400  Level Chicago TRACON
Tue 09:06:46 AM 42.1000 -87.8500 51° Northeast 306 352 7,300 2,683 Climbing Chicago TRACON
Tue 09:07:00 AM 42.2838 -86.6466 80° East  Level FlightAware Approximate
Tue 09:07:43 AM 42.1281 -87.7531 69° East 316 364 9,900  Level Chicago Center
Tue 09:08:00 AM 42.3000 -86.4972 90° East  Level FlightAware Approximate
Tue 09:08:44 AM 42.1553 -87.6322 73° East 332 382 12,500  Level Chicago Center
Tue 09:09:00 AM 42.3000 -86.3460 90° East  Level FlightAware Approximate
Tue 09:09:46 AM 42.1833 -87.5003 74° East 359 413 15,100  Level Chicago Center
Tue 09:10:48 AM 42.2133 -87.3603 74° East 383 441 17,800 1,984 Climbing Chicago Center
Tue 09:11:50 AM 42.2453 -87.2181 73° East 395 455 19,200 1,548 Climbing Chicago Center
Tue 09:12:52 AM 42.2828 -87.0219 75° East 446 513 21,000 1,854 Climbing Chicago Center
Tue 09:13:53 AM 42.2872 -86.8469 88° East 460 529 23,000 1,805 Climbing Chicago Center
Tue 09:14:55 AM 42.2942 -86.6675 87° East 468 539 24,700 1,403 Climbing Chicago Center
Tue 09:15:57 AM 42.3011 -86.4844 87° East 486 559 25,900 1,210 Climbing Chicago Center
Tue 09:16:59 AM 42.3075 -86.2967 87° East 500 575 27,200 1,210 Climbing Chicago Center
Tue 09:18:01 AM 42.3133 -86.1053 88° East 511 588 28,400 1,161 Climbing Chicago Center
Tue 09:19:03 AM 42.3133 -85.9117 90° East 519 597 29,600 1,073 Climbing Chicago Center
Tue 09:20:04 AM 42.3094 -85.6767 91° East 525 604 30,600 683 Climbing Chicago Center
Tue 09:21:06 AM 42.3069 -85.4739 91° East 539 620 31,000 194 Climbing Chicago Center
Tue 09:22:08 AM 42.3036 -85.2686 91° East 548 631 31,000  Level Chicago Center
Tue 09:23:03 AM 42.3036 -85.0731 90° East 538 619 31,000  Level Cleveland Center
Tue 09:24:03 AM 42.3011 -84.8678 91° East 538 619 31,000  Level Cleveland Center
Tue 09:25:03 AM 42.2958 -84.6681 92° East 538 619 31,000  Level Cleveland Center
Tue 09:26:03 AM 42.3003 -84.4828 88° East 538 619 31,000  Level Cleveland Center
Tue 09:27:03 AM 42.3172 -84.2817 83° East 538 619 31,000  Level Cleveland Center
Tue 09:28:03 AM 42.3361 -84.0778 83° East 538 619 31,000  Level Cleveland Center
Tue 09:29:03 AM 42.3525 -83.8764 84° East 538 619 31,000  Level Cleveland Center
Tue 09:30:03 AM 42.3708 -83.6719 83° East 538 619 31,000  Level Cleveland Center
Tue 09:31:03 AM 42.3844 -83.4675 85° East 538 619 31,000  Level Cleveland Center
Tue 09:32:03 AM 42.4019 -83.2628 83° East 538 619 31,000 -300 Level Cleveland Center
Tue 09:33:03 AM 42.4194 -83.0386 84° East 538 619 30,400 -800 Descending Cleveland Center
Tue 09:34:03 AM 42.4339 -82.8394 84° East 538 619 29,400 -700 Descending Cleveland Center
Tue 09:35:03 AM 42.4481 -82.6431 84° East 532 612 29,000 -200 Descending Cleveland Center
Tue 09:36:03 AM 42.4617 -82.4492 84° East 521 600 29,000  Level Cleveland Center
Tue 09:37:03 AM 42.4750 -82.2608 84° East 516 594 29,000  Level Cleveland Center
Tue 09:38:03 AM 42.4883 -82.0614 85° East 516 594 29,000  Level Cleveland Center
Tue 09:39:03 AM 42.5011 -81.8644 85° East 516 594 29,000  Level Cleveland Center
Tue 09:40:03 AM 42.5175 -81.6678 83° East 516 594 29,000  Level Cleveland Center
Tue 09:41:03 AM 42.5275 -81.4764 86° East 516 594 29,000  Level Cleveland Center
Tue 09:42:03 AM 42.5414 -81.2878 84° East 511 588 29,000  Level Cleveland Center
Tue 09:43:03 AM 42.5506 -81.1158 86° East 506 582 29,000  Level Cleveland Center
Tue 09:44:03 AM 42.5619 -80.9272 85° East 506 582 29,000  Level Cleveland Center
Tue 09:45:03 AM 42.5706 -80.7297 87° East 505 581 29,000  Level Cleveland Center
Tue 09:46:03 AM 42.5831 -80.5381 85° East 505 581 29,000  Level Cleveland Center
Tue 09:47:03 AM 42.5933 -80.3519 86° East 510 587 29,000  Level Cleveland Center
Tue 09:48:03 AM 42.6031 -80.1403 86° East 510 587 29,000  Level Cleveland Center
Tue 09:49:03 AM 42.6169 -79.9708 84° East 505 581 29,000  Level Cleveland Center
Tue 09:50:03 AM 42.6242 -79.7789 87° East 500 575 29,000  Level Cleveland Center
Tue 09:51:03 AM 42.6331 -79.5897 86° East 500 575 29,000  Level Cleveland Center
Tue 09:52:03 AM 42.6397 -79.4006 87° East 500 575 29,000  Level Cleveland Center
Tue 09:53:03 AM 42.6481 -79.2056 87° East 500 575 29,000  Level Cleveland Center
Tue 09:54:03 AM 42.6558 -79.0136 87° East 500 575 29,000  Level Cleveland Center
Tue 09:55:03 AM 42.6636 -78.8242 87° East 500 575 29,000  Level Cleveland Center
Tue 09:56:03 AM 42.6689 -78.6319 88° East 500 575 29,000  Level Cleveland Center
Tue 09:57:03 AM 42.6758 -78.4397 87° East 500 575 29,000  Level Cleveland Center
Tue 09:58:03 AM 42.6844 -78.2444 87° East 500 575 29,000  Level Cleveland Center
Tue 09:59:03 AM 42.6908 -78.0522 87° East 505 581 29,000  Level Cleveland Center
Tue 10:01:14 AM 42.7058 -77.6147 87° East 500 575 29,000  Level Boston Center
Tue 10:02:13 AM 42.7081 -77.4225 89° East 505 581 29,000  Level Boston Center
Tue 10:03:14 AM 42.7122 -77.2306 88° East 505 581 29,000  Level Boston Center
Tue 10:04:15 AM 42.7178 -77.0444 88° East 499 574 29,000  Level Boston Center
Tue 10:05:13 AM 42.7458 -76.8597 78° East 493 567 29,000  Level Boston Center
Tue 10:06:13 AM 42.7717 -76.6778 79° East 499 574 29,000  Level Boston Center
Tue 10:07:14 AM 42.7939 -76.5292 78° East 499 574 29,000  Level Boston Center
Tue 10:08:15 AM 42.8258 -76.3244 78° East 504 580 29,000  Level Boston Center
Tue 10:09:16 AM 42.8528 -76.1422 79° East 504 580 29,000  Level Boston Center
Tue 10:10:14 AM 42.8775 -75.9536 80° East 504 580 29,000  Level Boston Center
Tue 10:11:14 AM 42.9061 -75.7711 78° East 504 580 29,000  Level Boston Center
Tue 10:12:27 AM 42.9322 -75.5853 79° East 504 580 29,000  Level Boston Center
Tue 10:13:25 AM 42.9586 -75.3739 80° East 488 562 29,000  Level Boston Center
Tue 10:14:25 AM 42.9839 -75.1961 79° East 482 555 29,000  Level Boston Center
Tue 10:15:26 AM 43.0089 -75.0183 79° East 476 548 29,000  Level Boston Center
Tue 10:16:39 AM 43.0317 -74.8403 80° East 476 548 29,000  Level Boston Center
Tue 10:17:39 AM 43.0611 -74.6169 80° East 483 556 29,000  Level Boston Center
Tue 10:18:37 AM 43.0853 -74.4300 80° East 488 562 29,000  Level Boston Center
Tue 10:19:37 AM 43.1072 -74.2458 81° East 488 562 29,000  Level Boston Center
Tue 10:20:38 AM 43.1331 -74.0561 79° East 494 568 29,000  Level Boston Center
Tue 10:21:38 AM 43.1517 -73.9000 81° East 506 582 29,000  Level Boston Center
Tue 10:22:38 AM 43.1814 -73.6758 80° East 506 582 29,000  Level Boston Center
Tue 10:23:39 AM 43.2064 -73.4825 80° East 501 577 29,000  Level Boston Center
Tue 10:24:39 AM 43.2353 -73.2664 80° East 512 589 29,000  Level Boston Center
Tue 10:25:40 AM 43.2572 -73.0758 81° East 512 589 29,000 -203 Level Boston Center
Tue 10:26:37 AM 43.2789 -72.8850 81° East 512 589 28,600 -712 Descending Boston Center
Tue 10:27:38 AM 43.3006 -72.6939 81° East 506 582 27,600 -992 Descending Boston Center
Tue 10:28:38 AM 43.3217 -72.5086 81° East 496 571 26,600 -1,537 Descending Boston Center
Tue 10:29:39 AM 43.3403 -72.3289 82° East 486 559 24,500 -2,132 Descending Boston Center
Tue 10:30:39 AM 43.3586 -72.1544 82° East 475 547 22,300 -2,288 Descending Boston Center
Tue 10:31:37 AM 43.3789 -71.9831 81° East 464 534 20,000 -2,237 Descending Boston Center
Tue 10:32:37 AM 43.3950 -71.8231 82° East 435 501 17,900 -1,934 Descending Boston Center
Tue 10:33:38 AM 43.4086 -71.6769 83° East 423 487 16,100 -2,049 Descending Boston Center
Tue 10:34:40 AM 43.4261 -71.5081 82° East 413 475 13,700 -2,218 Descending Boston Center
Tue 10:35:37 AM 43.4417 -71.3736 81° East 407 468 11,700 -1,436 Descending Boston Center
Tue 10:36:37 AM 43.4547 -71.2275 83° East 393 452 10,900 -347 Descending Boston Center
Tue 10:37:38 AM 43.4842 -71.0694 76° East 387 445 11,000  Climbing Boston Center
Tue 10:38:39 AM 43.5161 -70.9483 70° East 382 440 10,900 -738 Descending Boston Center
Tue 10:39:40 AM 43.5372 -70.8133 78° East 340 391 9,500 -1,462 Descending Boston Center
Tue 10:40:38 AM 43.5314 -70.7075 94° East 301 346 8,000 -1,815 Descending Boston Center
Tue 10:41:39 AM 43.5272 -70.5789 93° East 301 346 5,900 -1,353 Descending Boston Center
Tue 10:42:51 AM 43.5214 -70.4817 95° East 295 339 5,000 -779 Descending Boston Center
Tue 10:43:50 AM 43.5128 -70.3417 95° East 284 327 4,200 -908 Descending Boston Center
Tue 10:44:50 AM 43.5114 -70.2700 92° East 274 315 3,200 -1,082 Descending Boston Center
Tue 10:45:52 AM 43.5028 -70.1444 95° East 261 300 2,000 -605 Descending Boston Center
Tue 10:46:49 AM 43.5450 -70.0711 52° Northeast 219 252 2,000  Level Boston Center
Tue 10:47:50 AM 43.6094 -70.0600 North 199 229 2,000 -90 Level Boston Center
Tue 10:49:03 AM 43.6317 -70.1308 293° West 145 167 1,800 -135 Descending Boston Center
Tue 10:50:03 AM 43.6369 -70.1908 277° West 126 145 1,700 -407 Descending Boston Center
Tue 10:51:01 AM 43.6403 -70.2425 275° West 126 145 1,000 -724 Descending Boston Center
Tue 10:53:00 AM 43.6333 -70.3000 318° Northwest  Level FlightAware Approximate
Tue 11:00:00 AM 43.6456 -70.3086 318° Northwest  Level Estimated

Login

Don't have an account? Register now (free) for customized features, flight alerts, and more!